Terminal Aerodrome Forecast
Issued by NWS

Home | Current Version | Previous Version | Text Only | Print | Product List | Glossary On
Versions: 1 2 3 4 5 6 7 8 9 10 11 12
000
FTUS42 TJSJ 302320
TAFISX
TAF
TISX 302320Z 3100/3124 06009KT P6SM FEW035
     FM311450 11014KT P6SM SCT030
     FM312300 07010G17KT P6SM FEW250=

USA.gov is the U.S. government's official web portal to all federal, state and local government web resources and services.